createdAt,value
2022-09-15T00:04:20.784Z,6.27
2022-09-15T00:09:26.049Z,8.50
2022-09-15T00:14:31.499Z,7.20
2022-09-15T00:19:36.802Z,7.60
2022-09-15T00:24:42.305Z,6.83
2022-09-15T00:29:48.548Z,7.33
2022-09-15T00:34:53.902Z,7.50
2022-09-15T00:39:59.380Z,7.27
2022-09-15T00:45:07.540Z,6.57
2022-09-15T00:50:21.674Z,7.80
2022-09-15T00:55:36.152Z,10.50
2022-09-15T01:00:44.405Z,8.10
2022-09-15T01:05:54.785Z,7.93
2022-09-15T01:11:02.991Z,6.80
2022-09-15T01:21:59.113Z,9.20
2022-09-15T01:27:37.610Z,8.87
2022-09-15T01:32:56.406Z,8.97
2022-09-15T01:38:19.771Z,9.43
2022-09-15T01:43:27.933Z,8.70
2022-09-15T01:48:35.228Z,9.73
2022-09-15T01:53:41.741Z,8.97
2022-09-15T01:58:48.599Z,9.10
2022-09-15T02:04:06.023Z,8.43
2022-09-15T02:09:20.432Z,8.50
2022-09-15T02:14:33.415Z,9.13
2022-09-15T02:19:42.206Z,9.23
2022-09-15T02:24:51.567Z,8.67
2022-09-15T02:29:59.824Z,8.53
2022-09-15T02:35:08.219Z,8.50
2022-09-15T02:40:14.274Z,9.10
2022-09-15T02:45:20.645Z,7.07
2022-09-15T02:50:26.840Z,7.47
2022-09-15T02:55:32.268Z,7.47
2022-09-15T03:00:39.333Z,7.43
2022-09-15T03:05:45.132Z,7.43
2022-09-15T03:10:50.727Z,9.30
2022-09-15T03:15:56.016Z,9.47
2022-09-15T03:21:02.530Z,9.50
2022-09-15T03:26:09.535Z,7.93
2022-09-15T03:31:14.950Z,7.93
2022-09-15T03:36:20.291Z,8.57
2022-09-15T03:41:28.407Z,8.80
2022-09-15T03:46:33.964Z,11.23
2022-09-15T03:51:39.210Z,11.33
2022-09-15T03:56:46.658Z,11.73
2022-09-15T04:01:53.126Z,10.57
2022-09-15T04:06:58.511Z,9.50
2022-09-15T04:12:04.883Z,7.80
2022-09-15T04:17:11.900Z,6.97
2022-09-15T04:22:25.239Z,6.73
2022-09-15T04:27:41.959Z,5.87
2022-09-15T04:32:50.407Z,5.83
2022-09-15T04:37:55.692Z,5.93
2022-09-15T04:43:01.418Z,5.80
2022-09-15T04:48:06.871Z,6.17
2022-09-15T04:53:14.751Z,5.50
2022-09-15T04:58:20.634Z,5.67
2022-09-15T05:03:27.001Z,5.00
2022-09-15T05:08:32.443Z,5.20
2022-09-15T05:13:39.161Z,5.47
2022-09-15T05:18:47.206Z,5.17
2022-09-15T05:23:55.996Z,4.77
2022-09-15T05:29:01.332Z,8.57
2022-09-15T05:34:07.391Z,5.90
2022-09-15T05:39:14.288Z,8.07
2022-09-15T05:44:21.715Z,11.03
2022-09-15T05:49:26.999Z,7.60
2022-09-15T05:54:33.367Z,8.70
2022-09-15T05:59:42.416Z,6.60
2022-09-15T06:04:47.840Z,8.20
2022-09-15T06:09:53.287Z,7.63
2022-09-15T06:15:00.597Z,6.97
2022-09-15T06:20:07.642Z,8.63
2022-09-15T06:25:13.761Z,4.30
2022-09-15T06:30:19.529Z,4.60
2022-09-15T06:35:24.868Z,3.53
2022-09-15T06:40:31.168Z,3.37
2022-09-15T06:45:36.748Z,3.23
2022-09-15T06:50:42.181Z,4.47
2022-09-15T06:55:47.705Z,4.50
2022-09-15T07:00:54.595Z,2.90
2022-09-15T07:06:00.195Z,3.67
2022-09-15T07:11:06.375Z,2.47
2022-09-15T07:16:14.179Z,2.10
2022-09-15T07:21:21.847Z,1.87
2022-09-15T07:26:31.601Z,1.90
2022-09-15T07:31:39.195Z,1.77
2022-09-15T07:36:47.954Z,1.77
2022-09-15T07:41:54.084Z,1.60
2022-09-15T07:46:59.586Z,2.03
2022-09-15T07:52:05.460Z,1.30
2022-09-15T07:57:11.029Z,1.57
2022-09-15T08:02:21.065Z,1.40
2022-09-15T08:07:33.289Z,1.30
2022-09-15T08:12:40.406Z,1.00
2022-09-15T08:17:47.084Z,1.00
2022-09-15T08:22:57.236Z,1.47
2022-09-15T08:28:08.217Z,1.43
2022-09-15T08:33:41.977Z,1.20
2022-09-15T08:38:58.760Z,1.10
2022-09-15T08:44:44.182Z,1.20
2022-09-15T08:50:34.604Z,2.30
2022-09-15T08:55:49.870Z,1.30
2022-09-15T09:01:10.203Z,1.30
2022-09-15T09:06:22.708Z,1.53
2022-09-15T09:17:40.795Z,1.30
2022-09-15T09:23:07.147Z,1.87
2022-09-15T09:28:33.728Z,0.95
2022-09-15T09:33:48.517Z,1.43
2022-09-15T09:39:05.962Z,2.77
2022-09-15T09:44:18.431Z,1.30
2022-09-15T09:49:31.270Z,1.10
2022-09-15T09:54:37.693Z,2.20
2022-09-15T09:59:51.996Z,1.27
2022-09-15T10:05:08.370Z,1.27
2022-09-15T10:10:25.403Z,4.65
2022-09-15T10:15:37.352Z,1.00
2022-09-15T10:20:51.244Z,0.73
2022-09-15T10:26:00.514Z,0.67
2022-09-15T10:31:13.556Z,1.00
2022-09-15T10:36:32.771Z,1.00
2022-09-15T10:41:40.961Z,1.00
2022-09-15T10:47:05.940Z,1.20
2022-09-15T10:52:16.914Z,0.90
2022-09-15T11:02:42.061Z,2.20
2022-09-15T11:08:09.012Z,2.90
2022-09-15T11:13:17.423Z,1.00
2022-09-15T11:18:34.743Z,1.57
2022-09-15T11:23:52.042Z,0.90
2022-09-15T11:29:06.143Z,1.67
2022-09-15T11:34:26.482Z,1.03
2022-09-15T11:39:39.103Z,1.10
2022-09-15T11:44:48.804Z,0.80
2022-09-15T11:50:03.020Z,1.47
2022-09-15T11:55:38.491Z,1.37
2022-09-15T12:00:50.555Z,1.30
2022-09-15T12:06:13.527Z,0.93
2022-09-15T12:11:22.883Z,0.83
2022-09-15T12:16:29.260Z,0.80
2022-09-15T12:21:48.906Z,1.00
2022-09-15T12:26:54.215Z,1.10
2022-09-15T12:32:20.532Z,0.90
2022-09-15T12:37:28.843Z,0.90
2022-09-15T12:42:36.275Z,1.00
2022-09-15T12:47:58.574Z,0.73
2022-09-15T12:53:06.905Z,0.93
2022-09-15T12:58:18.858Z,0.80
2022-09-15T13:03:41.891Z,0.80
2022-09-15T13:09:10.081Z,1.13
2022-09-15T13:14:36.574Z,1.03
2022-09-15T13:20:15.372Z,1.00
2022-09-15T13:25:24.568Z,1.03
2022-09-15T13:32:41.379Z,1.13
2022-09-15T13:42:07.569Z,1.00
2022-09-15T13:47:26.160Z,0.80
2022-09-15T13:53:13.286Z,1.00
2022-09-15T14:03:53.405Z,0.80
2022-09-15T14:09:05.647Z,0.80
2022-09-15T14:14:13.882Z,0.60
2022-09-15T14:19:41.510Z,1.00
2022-09-15T14:24:47.501Z,0.63
2022-09-15T14:29:55.842Z,0.70
2022-09-15T14:35:03.520Z,1.10
2022-09-15T14:40:29.662Z,0.97
2022-09-15T14:50:55.100Z,0.70
2022-09-15T14:56:08.302Z,0.77
2022-09-15T15:01:38.982Z,0.70
2022-09-15T15:07:10.714Z,0.87
2022-09-15T15:12:41.166Z,0.77
2022-09-15T15:34:51.716Z,1.00
2022-09-15T15:40:04.614Z,1.30
2022-09-15T15:45:31.407Z,1.00
2022-09-15T15:50:36.923Z,0.90
2022-09-15T15:58:29.595Z,2.57
2022-09-15T16:03:35.530Z,2.43
2022-09-15T16:08:43.869Z,1.50
2022-09-15T16:13:49.026Z,2.47
2022-09-15T16:18:56.395Z,2.60
2022-09-15T16:24:03.214Z,2.87
2022-09-15T16:29:08.766Z,2.10
2022-09-15T16:40:11.267Z,2.13
2022-09-15T16:56:10.052Z,2.23
2022-09-15T17:01:25.631Z,2.07
2022-09-15T17:06:31.314Z,1.80
2022-09-15T17:11:38.400Z,1.67
2022-09-15T17:16:45.257Z,2.00
2022-09-15T17:21:52.882Z,1.20
2022-09-15T17:26:58.339Z,1.80
2022-09-15T17:32:03.702Z,3.20
2022-09-15T17:37:09.053Z,3.20
2022-09-15T17:42:15.232Z,2.00
2022-09-15T17:47:22.137Z,2.10
2022-09-15T17:52:28.812Z,1.70
2022-09-15T17:57:34.271Z,2.00
2022-09-15T18:02:44.048Z,1.37
2022-09-15T18:07:50.847Z,1.10
2022-09-15T18:12:58.518Z,1.50
2022-09-15T18:18:08.878Z,1.27
2022-09-15T18:23:17.427Z,1.53
2022-09-15T18:28:25.607Z,2.40
2022-09-15T18:33:31.908Z,2.83
2022-09-15T18:38:37.232Z,2.20
2022-09-15T18:43:43.977Z,3.50
2022-09-15T18:48:50.907Z,3.00
2022-09-15T18:53:58.313Z,2.30
2022-09-15T18:59:03.663Z,2.30
2022-09-15T19:04:09.642Z,2.17
2022-09-15T19:09:19.733Z,3.87
2022-09-15T19:14:25.249Z,3.47
2022-09-15T19:19:30.687Z,6.30
2022-09-15T19:24:45.996Z,7.43
2022-09-15T19:29:51.921Z,7.73
2022-09-15T19:34:59.386Z,9.60
2022-09-15T19:40:08.731Z,10.67
2022-09-15T19:45:14.658Z,10.20
2022-09-15T19:50:20.471Z,10.57
2022-09-15T19:55:27.388Z,10.60
2022-09-15T20:00:32.891Z,10.30
2022-09-15T20:05:38.477Z,6.97
2022-09-15T20:10:46.049Z,7.67
2022-09-15T20:16:04.542Z,8.33
2022-09-15T20:21:17.994Z,6.43
2022-09-15T20:26:19.923Z,4.30
2022-09-15T20:31:26.721Z,3.37
2022-09-15T20:36:35.733Z,2.63
2022-09-15T20:41:42.450Z,2.00
2022-09-15T20:46:47.770Z,3.40
2022-09-15T20:51:54.649Z,4.50
2022-09-15T20:57:00.717Z,4.90
2022-09-15T21:02:07.595Z,3.20
2022-09-15T21:07:13.032Z,3.10
2022-09-15T21:12:18.417Z,7.67
2022-09-15T21:17:23.667Z,6.23
2022-09-15T21:22:28.860Z,4.37
2022-09-15T21:27:34.867Z,5.07
2022-09-15T21:32:40.374Z,4.80
2022-09-15T21:37:45.812Z,5.73
2022-09-15T21:42:51.528Z,6.00
2022-09-15T21:47:57.402Z,4.23
2022-09-15T21:53:02.851Z,4.10
2022-09-15T21:58:08.403Z,3.33
2022-09-15T22:03:14.113Z,5.10
2022-09-15T22:08:19.492Z,4.03
2022-09-15T22:13:24.807Z,4.67
2022-09-15T22:18:30.231Z,3.17
2022-09-15T22:23:36.618Z,5.13
2022-09-15T22:28:42.148Z,4.57
2022-09-15T22:33:48.061Z,5.33
2022-09-15T22:38:54.354Z,5.07
2022-09-15T22:44:12.668Z,3.23
2022-09-15T22:49:18.011Z,3.57
2022-09-15T22:54:23.619Z,1.63
2022-09-15T22:59:28.907Z,2.20
2022-09-15T23:04:34.663Z,1.47
2022-09-15T23:09:40.493Z,1.60
2022-09-15T23:14:46.863Z,2.13
2022-09-15T23:19:52.110Z,1.47
2022-09-15T23:24:57.814Z,2.03
2022-09-15T23:30:02.963Z,1.67
2022-09-15T23:35:09.014Z,1.77
2022-09-15T23:40:14.835Z,2.60
2022-09-15T23:45:20.211Z,2.97
2022-09-15T23:50:26.678Z,3.40
2022-09-15T23:55:32.681Z,2.20
